Time,TemperatureF,DewpointF,PressureIn,WindDirection,WindDirectionDegrees,WindSpeedMPH,WindSpeedGustMPH,Humidity,HourlyPrecipIn,Conditions,Clouds,dailyrainin,SoftwareType,DateUTC
2013-03-05 00:00:00,31.8,19.5,30.13,ENE,68,0.0,0.0,60,0.00,,,0.00,WUHU216HW,2013-03-05 05:00:00,
2013-03-05 00:05:00,32.0,20.1,30.13,ENE,68,0.0,0.0,61,0.00,,,0.00,WUHU216HW,2013-03-05 05:05:00,
2013-03-05 00:10:00,32.1,20.2,30.13,NE,45,0.0,0.0,61,0.00,,,0.00,WUHU216HW,2013-03-05 05:10:00,
2013-03-05 00:15:00,32.1,20.2,30.13,NE,45,0.0,0.0,61,0.00,,,0.00,WUHU216HW,2013-03-05 05:15:00,
2013-03-05 00:20:00,32.1,20.2,30.13,ENE,68,0.0,0.0,61,0.00,,,0.00,WUHU216HW,2013-03-05 05:20:00,
2013-03-05 00:25:00,32.1,20.2,30.12,NE,45,0.0,0.0,61,0.00,,,0.00,WUHU216HW,2013-03-05 05:25:00,
2013-03-05 00:30:00,32.1,20.2,30.12,NE,45,0.0,0.0,61,0.00,,,0.00,WUHU216HW,2013-03-05 05:30:00,
2013-03-05 00:35:00,32.1,20.2,30.11,NE,45,0.0,0.0,61,0.00,,,0.00,WUHU216HW,2013-03-05 05:35:00,
2013-03-05 00:40:00,32.0,20.1,30.11,ENE,68,0.0,3.3,61,0.00,,,0.00,WUHU216HW,2013-03-05 05:40:00,
2013-03-05 00:45:00,31.8,19.9,30.11,NE,45,0.0,3.3,61,0.00,,,0.00,WUHU216HW,2013-03-05 05:45:00,
2013-03-05 00:50:00,31.8,19.9,30.10,ENE,68,1.3,2.0,61,0.00,,,0.00,WUHU216HW,2013-03-05 05:50:00,
2013-03-05 00:55:00,31.8,19.9,30.10,ENE,68,1.3,3.1,61,0.00,,,0.00,WUHU216HW,2013-03-05 05:55:00,
2013-03-05 01:00:00,31.8,19.9,30.09,ESE,113,2.0,3.1,61,0.00,,,0.00,WUHU216HW,2013-03-05 06:00:00,
2013-03-05 01:05:00,31.8,19.9,30.09,ESE,113,2.9,2.9,61,0.00,,,0.00,WUHU216HW,2013-03-05 06:05:00,
2013-03-05 01:10:00,31.6,19.7,30.09,East,90,1.3,2.9,61,0.00,,,0.00,WUHU216HW,2013-03-05 06:10:00,
2013-03-05 01:15:00,31.6,19.7,30.09,ESE,113,2.9,2.9,61,0.00,,,0.00,WUHU216HW,2013-03-05 06:15:00,
2013-03-05 01:20:00,31.6,19.7,30.09,NE,45,0.6,2.9,61,0.00,,,0.00,WUHU216HW,2013-03-05 06:20:00,
2013-03-05 01:25:00,31.6,19.7,30.09,East,90,2.6,2.9,61,0.00,,,0.00,WUHU216HW,2013-03-05 06:25:00,
2013-03-05 01:30:00,31.6,19.7,30.09,SE,135,5.1,5.1,61,0.00,,,0.00,WUHU216HW,2013-03-05 06:30:00,
2013-03-05 01:35:00,31.6,19.7,30.09,East,90,2.9,5.1,61,0.00,,,0.00,WUHU216HW,2013-03-05 06:35:00,
2013-03-05 01:40:00,31.6,20.1,30.08,NE,45,0.0,2.9,62,0.00,,,0.00,WUHU216HW,2013-03-05 06:40:00,
2013-03-05 01:45:00,31.6,20.1,30.08,NE,45,1.1,2.9,62,0.00,,,0.00,WUHU216HW,2013-03-05 06:45:00,
2013-03-05 01:50:00,31.6,20.1,30.08,NNE,23,0.8,1.1,62,0.00,,,0.00,WUHU216HW,2013-03-05 06:50:00,
2013-03-05 01:58:00,31.6,19.9,30.08,NE,45,4.6,4.6,62,0.00,,,0.00,WUHU216HW,2013-03-05 06:58:00,
2013-03-05 02:03:00,31.4,19.9,30.08,East,90,0.0,4.6,62,0.00,,,0.00,WUHU216HW,2013-03-05 07:03:00,
2013-03-05 02:08:00,31.6,20.1,30.08,ESE,113,2.0,3.1,62,0.00,,,0.00,WUHU216HW,2013-03-05 07:08:00,
2013-03-05 02:13:00,31.6,20.4,30.07,ENE,68,0.8,3.1,63,0.00,,,0.00,WUHU216HW,2013-03-05 07:13:00,
2013-03-05 02:18:00,31.6,20.4,30.08,ENE,68,0.8,1.5,63,0.00,,,0.00,WUHU216HW,2013-03-05 07:18:00,
2013-03-05 02:23:00,31.6,20.4,30.07,SE,135,1.1,1.5,63,0.00,,,0.00,WUHU216HW,2013-03-05 07:23:00,
2013-03-05 02:28:00,31.6,20.4,30.06,East,90,2.0,2.0,63,0.00,,,0.00,WUHU216HW,2013-03-05 07:28:00,
2013-03-05 02:33:00,31.6,20.4,30.06,ESE,113,3.8,3.8,63,0.00,,,0.00,WUHU216HW,2013-03-05 07:33:00,
2013-03-05 02:38:00,31.6,20.4,30.06,ESE,113,2.4,3.8,63,0.00,,,0.00,WUHU216HW,2013-03-05 07:38:00,
2013-03-05 02:43:00,31.6,20.4,30.06,ENE,68,3.1,3.8,63,0.00,,,0.00,WUHU216HW,2013-03-05 07:43:00,
2013-03-05 02:48:00,31.6,20.4,30.05,ENE,68,1.7,3.1,63,0.00,,,0.00,WUHU216HW,2013-03-05 07:48:00,
2013-03-05 02:53:00,31.6,20.4,30.06,SSE,158,2.9,3.1,63,0.00,,,0.00,WUHU216HW,2013-03-05 07:53:00,
2013-03-05 02:58:00,31.6,20.4,30.05,NE,45,2.2,3.1,63,0.00,,,0.00,WUHU216HW,2013-03-05 07:58:00,
2013-03-05 03:03:00,31.6,20.4,30.05,ENE,68,2.2,2.9,63,0.00,,,0.00,WUHU216HW,2013-03-05 08:03:00,
2013-03-05 03:08:00,31.6,20.4,30.04,NNE,23,0.0,2.2,63,0.00,,,0.00,WUHU216HW,2013-03-05 08:08:00,
2013-03-05 03:13:00,31.6,20.4,30.04,NE,45,0.0,2.2,63,0.00,,,0.00,WUHU216HW,2013-03-05 08:13:00,
2013-03-05 03:18:00,31.6,20.4,30.03,NE,45,3.3,4.2,63,0.00,,,0.00,WUHU216HW,2013-03-05 08:18:00,
2013-03-05 03:23:00,31.6,20.4,30.03,ENE,68,3.1,4.2,63,0.00,,,0.00,WUHU216HW,2013-03-05 08:23:00,
2013-03-05 03:28:00,31.6,20.4,30.03,SE,135,2.4,3.3,63,0.00,,,0.00,WUHU216HW,2013-03-05 08:28:00,
2013-03-05 03:33:00,31.6,20.8,30.03,SE,135,2.4,3.1,64,0.00,,,0.00,WUHU216HW,2013-03-05 08:33:00,
2013-03-05 03:38:00,31.6,20.8,30.03,ENE,68,1.7,2.4,64,0.00,,,0.00,WUHU216HW,2013-03-05 08:38:00,
2013-03-05 03:43:00,31.6,20.8,30.02,ESE,113,2.4,3.1,64,0.00,,,0.00,WUHU216HW,2013-03-05 08:43:00,
2013-03-05 03:48:00,31.4,20.6,30.03,NE,45,2.9,3.1,64,0.00,,,0.00,WUHU216HW,2013-03-05 08:48:00,
2013-03-05 03:53:00,31.2,20.4,30.02,ENE,68,2.0,2.9,64,0.00,,,0.00,WUHU216HW,2013-03-05 08:53:00,
2013-03-05 03:58:00,31.2,20.4,30.02,NE,45,1.7,3.1,64,0.00,,,0.00,WUHU216HW,2013-03-05 08:58:00,
2013-03-05 04:03:00,31.2,20.4,30.01,East,90,2.4,4.6,64,0.00,,,0.00,WUHU216HW,2013-03-05 09:03:00,
2013-03-05 04:08:00,31.2,20.4,30.02,ENE,68,2.9,4.6,64,0.00,,,0.00,WUHU216HW,2013-03-05 09:08:00,
2013-03-05 04:13:00,31.2,20.4,30.01,SE,135,3.1,3.1,64,0.00,,,0.00,WUHU216HW,2013-03-05 09:13:00,
2013-03-05 04:18:00,31.2,20.4,30.01,NE,45,4.0,4.0,64,0.00,,,0.00,WUHU216HW,2013-03-05 09:18:00,
2013-03-05 04:23:00,31.2,20.4,30.00,North,0,3.1,4.0,64,0.00,,,0.00,WUHU216HW,2013-03-05 09:23:00,
2013-03-05 04:28:00,31.2,20.4,30.01,North,0,2.4,4.0,64,0.00,,,0.00,WUHU216HW,2013-03-05 09:28:00,
2013-03-05 04:33:00,31.2,20.4,30.00,ENE,68,0.0,2.9,64,0.00,,,0.00,WUHU216HW,2013-03-05 09:33:00,
2013-03-05 04:38:00,31.2,20.4,30.00,ENE,68,1.7,3.5,64,0.00,,,0.00,WUHU216HW,2013-03-05 09:38:00,
2013-03-05 04:43:00,31.2,20.4,30.00,SSE,158,4.0,4.0,64,0.00,,,0.00,WUHU216HW,2013-03-05 09:43:00,
2013-03-05 04:48:00,31.2,20.4,30.00,ESE,113,4.2,4.2,64,0.00,,,0.00,WUHU216HW,2013-03-05 09:48:00,
2013-03-05 04:53:00,31.2,20.4,30.00,ESE,113,4.4,4.4,64,0.00,,,0.00,WUHU216HW,2013-03-05 09:53:00,
2013-03-05 04:58:00,31.2,20.4,30.00,NE,45,1.7,4.4,64,0.00,,,0.00,WUHU216HW,2013-03-05 09:58:00,
2013-03-05 05:03:00,31.2,20.4,29.99,SE,135,6.9,6.9,64,0.00,,,0.00,WUHU216HW,2013-03-05 10:03:00,
2013-03-05 05:08:00,31.2,20.1,30.00,East,90,3.5,6.9,63,0.00,,,0.00,WUHU216HW,2013-03-05 10:08:00,
2013-03-05 05:13:00,31.2,20.1,29.99,ENE,68,3.8,6.9,63,0.00,,,0.00,WUHU216HW,2013-03-05 10:13:00,
2013-03-05 05:18:00,31.2,20.1,29.99,NE,45,1.3,4.4,63,0.00,,,0.00,WUHU216HW,2013-03-05 10:18:00,
2013-03-05 05:23:00,31.4,20.3,29.99,ESE,113,2.0,3.8,63,0.00,,,0.00,WUHU216HW,2013-03-05 10:23:00,
2013-03-05 05:28:00,31.6,20.4,29.99,NE,45,2.2,7.3,63,0.00,,,0.00,WUHU216HW,2013-03-05 10:28:00,
2013-03-05 05:33:00,31.6,20.4,29.98,NE,45,3.3,8.9,63,0.00,,,0.00,WUHU216HW,2013-03-05 10:33:00,
2013-03-05 05:38:00,31.6,20.4,29.98,NE,45,3.8,8.9,63,0.00,,,0.00,WUHU216HW,2013-03-05 10:38:00,
2013-03-05 05:43:00,31.6,20.4,29.98,East,90,3.1,4.6,63,0.00,,,0.00,WUHU216HW,2013-03-05 10:43:00,
2013-03-05 05:48:00,31.6,20.4,29.98,SE,135,2.9,4.6,63,0.00,,,0.00,WUHU216HW,2013-03-05 10:48:00,
2013-03-05 05:53:00,31.6,20.4,29.98,NE,45,4.6,6.4,63,0.00,,,0.00,WUHU216HW,2013-03-05 10:53:00,
2013-03-05 05:58:00,31.6,20.4,29.98,ENE,68,2.6,6.4,62,0.00,,,0.00,WUHU216HW,2013-03-05 10:58:00,
2013-03-05 06:03:00,31.6,20.1,29.98,ESE,113,1.3,6.4,62,0.00,,,0.00,WUHU216HW,2013-03-05 11:03:00,
2013-03-05 06:08:00,31.6,20.1,29.97,ESE,113,3.1,6.4,62,0.00,,,0.00,WUHU216HW,2013-03-05 11:08:00,
2013-03-05 06:13:00,31.6,20.1,29.98,East,90,1.5,10.0,62,0.00,,,0.00,WUHU216HW,2013-03-05 11:13:00,
2013-03-05 06:18:00,31.6,20.1,29.97,ESE,113,7.6,10.0,62,0.00,,,0.00,WUHU216HW,2013-03-05 11:18:00,
2013-03-05 06:23:00,31.6,20.1,29.97,East,90,8.9,8.9,62,0.00,,,0.00,WUHU216HW,2013-03-05 11:23:00,
2013-03-05 06:28:00,31.6,20.1,29.97,SE,135,6.7,8.9,62,0.00,,,0.00,WUHU216HW,2013-03-05 11:28:00,
2013-03-05 06:33:00,31.6,20.1,29.96,ESE,113,4.4,6.7,62,0.00,,,0.00,WUHU216HW,2013-03-05 11:33:00,
2013-03-05 06:39:00,31.6,20.1,29.96,ENE,68,5.3,6.7,62,0.00,,,0.00,WUHU216HW,2013-03-05 11:39:00,
2013-03-05 06:44:00,31.6,20.1,29.96,ESE,113,4.6,5.5,62,0.00,,,0.00,WUHU216HW,2013-03-05 11:44:00,
2013-03-05 06:49:00,31.6,20.1,29.96,ENE,68,2.6,5.5,62,0.00,,,0.00,WUHU216HW,2013-03-05 11:49:00,
2013-03-05 06:54:00,31.6,20.1,29.96,ESE,113,5.5,5.5,62,0.00,,,0.00,WUHU216HW,2013-03-05 11:54:00,
2013-03-05 06:59:00,31.8,20.3,29.96,ESE,113,2.2,5.5,62,0.00,,,0.00,WUHU216HW,2013-03-05 11:59:00,
2013-03-05 07:04:00,31.6,20.1,29.97,ESE,113,4.0,6.0,62,0.00,,,0.00,WUHU216HW,2013-03-05 12:04:00,
2013-03-05 07:09:00,31.6,20.1,29.96,ESE,113,5.3,11.1,62,0.00,,,0.00,WUHU216HW,2013-03-05 12:09:00,
2013-03-05 07:14:00,31.6,20.1,29.97,NNE,23,4.0,11.1,62,0.00,,,0.00,WUHU216HW,2013-03-05 12:14:00,
2013-03-05 07:19:00,31.6,20.1,29.97,ENE,68,6.2,8.5,62,0.00,,,0.00,WUHU216HW,2013-03-05 12:19:00,
2013-03-05 07:24:00,31.6,20.1,29.97,NNE,23,7.3,8.5,62,0.00,,,0.00,WUHU216HW,2013-03-05 12:24:00,
2013-03-05 07:29:00,31.6,20.1,29.98,NE,45,2.4,12.7,62,0.00,,,0.00,WUHU216HW,2013-03-05 12:29:00,
2013-03-05 07:34:00,31.6,20.1,29.98,ENE,68,6.4,12.7,62,0.00,,,0.00,WUHU216HW,2013-03-05 12:34:00,
2013-03-05 07:39:00,31.6,20.4,29.98,ESE,113,10.9,10.9,63,0.00,,,0.00,WUHU216HW,2013-03-05 12:39:00,
2013-03-05 07:44:00,31.2,20.1,29.98,ENE,68,4.6,10.9,63,0.00,,,0.00,WUHU216HW,2013-03-05 12:44:00,
2013-03-05 07:49:00,31.2,20.1,29.98,SE,135,6.2,6.9,63,0.00,,,0.00,WUHU216HW,2013-03-05 12:49:00,
2013-03-05 07:54:00,31.2,20.1,29.98,SE,135,10.2,10.2,63,0.00,,,0.00,WUHU216HW,2013-03-05 12:54:00,
2013-03-05 07:59:00,31.2,20.1,29.98,NE,45,4.4,10.2,63,0.00,,,0.00,WUHU216HW,2013-03-05 12:59:00,
2013-03-05 08:04:00,31.2,20.1,29.99,ENE,68,4.6,6.2,63,0.00,,,0.00,WUHU216HW,2013-03-05 13:04:00,
2013-03-05 08:09:00,31.2,20.1,29.98,ENE,68,3.5,12.0,63,0.00,,,0.00,WUHU216HW,2013-03-05 13:09:00,
2013-03-05 08:14:00,31.2,20.1,29.99,East,90,3.8,12.0,63,0.00,,,0.00,WUHU216HW,2013-03-05 13:14:00,
2013-03-05 08:19:00,31.2,20.1,29.99,ESE,113,1.3,17.2,63,0.00,,,0.00,WUHU216HW,2013-03-05 13:19:00,
2013-03-05 08:24:00,31.2,20.1,29.99,ENE,68,2.6,17.2,63,0.00,,,0.00,WUHU216HW,2013-03-05 13:24:00,
2013-03-05 08:29:00,31.1,20.3,29.99,ENE,68,2.9,13.4,64,0.00,,,0.00,WUHU216HW,2013-03-05 13:29:00,
2013-03-05 08:34:00,31.2,20.4,30.00,ENE,68,4.0,13.4,64,0.00,,,0.00,WUHU216HW,2013-03-05 13:34:00,
2013-03-05 08:39:00,31.2,20.4,30.00,ENE,68,3.8,5.3,64,0.00,,,0.00,WUHU216HW,2013-03-05 13:39:00,
2013-03-05 08:44:00,31.2,20.4,30.00,ESE,113,8.7,8.7,64,0.00,,,0.00,WUHU216HW,2013-03-05 13:44:00,
2013-03-05 08:49:00,31.1,20.3,30.00,ESE,113,4.9,9.3,64,0.00,,,0.00,WUHU216HW,2013-03-05 13:49:00,
2013-03-05 08:54:00,31.1,20.3,30.00,SSE,158,7.6,9.3,64,0.00,,,0.00,WUHU216HW,2013-03-05 13:54:00,
2013-03-05 08:59:00,31.1,20.3,30.00,East,90,5.5,7.6,64,0.00,,,0.00,WUHU216HW,2013-03-05 13:59:00,
2013-03-05 09:04:00,30.9,20.1,30.00,ESE,113,3.8,10.5,64,0.00,,,0.00,WUHU216HW,2013-03-05 14:04:00,
2013-03-05 09:09:00,30.9,20.1,30.00,SE,135,7.3,10.5,64,0.00,,,0.00,WUHU216HW,2013-03-05 14:09:00,
2013-03-05 09:14:00,30.9,20.1,30.00,ENE,68,2.6,7.3,64,0.00,,,0.00,WUHU216HW,2013-03-05 14:14:00,
2013-03-05 09:19:00,31.1,20.3,30.00,ESE,113,11.6,11.6,64,0.00,,,0.00,WUHU216HW,2013-03-05 14:19:00,
2013-03-05 09:24:00,31.1,20.3,30.00,ESE,113,2.6,11.6,64,0.00,,,0.00,WUHU216HW,2013-03-05 14:24:00,
2013-03-05 09:29:00,31.1,20.3,30.00,ESE,113,5.1,6.4,64,0.00,,,0.00,WUHU216HW,2013-03-05 14:29:00,
2013-03-05 09:34:00,31.2,20.4,30.00,NE,45,3.8,6.4,64,0.00,,,0.00,WUHU216HW,2013-03-05 14:34:00,
2013-03-05 09:39:00,31.2,20.4,30.00,SE,135,13.6,13.6,64,0.00,,,0.00,WUHU216HW,2013-03-05 14:39:00,
2013-03-05 09:44:00,31.2,20.4,29.99,East,90,4.6,13.6,64,0.00,,,0.00,WUHU216HW,2013-03-05 14:44:00,
2013-03-05 09:49:00,31.4,20.6,29.99,ENE,68,3.8,8.7,64,0.00,,,0.00,WUHU216HW,2013-03-05 14:49:00,
2013-03-05 09:54:00,31.6,20.8,30.00,ENE,68,5.1,8.7,64,0.00,,,0.00,WUHU216HW,2013-03-05 14:54:00,
2013-03-05 09:59:00,31.8,21.3,30.00,East,90,5.8,5.8,65,0.00,,,0.00,WUHU216HW,2013-03-05 14:59:00,
2013-03-05 10:04:00,32.1,21.3,29.99,South,180,3.3,6.0,64,0.00,,,0.00,WUHU216HW,2013-03-05 15:04:00,
2013-03-05 10:09:00,32.1,21.3,29.99,ESE,113,11.8,11.8,64,0.00,,,0.00,WUHU216HW,2013-03-05 15:09:00,
2013-03-05 10:14:00,32.1,21.3,29.99,SE,135,10.2,11.8,64,0.00,,,0.00,WUHU216HW,2013-03-05 15:14:00,
2013-03-05 10:19:00,32.1,21.3,29.99,East,90,5.3,12.9,64,0.00,,,0.00,WUHU216HW,2013-03-05 15:19:00,
2013-03-05 10:24:00,32.1,21.7,30.00,ESE,113,14.9,14.9,65,0.00,,,0.00,WUHU216HW,2013-03-05 15:24:00,
2013-03-05 10:29:00,32.1,21.7,29.99,SE,135,8.0,14.9,65,0.00,,,0.00,WUHU216HW,2013-03-05 15:29:00,
2013-03-05 10:34:00,31.8,21.3,29.99,ESE,113,3.3,8.0,65,0.00,,,0.00,WUHU216HW,2013-03-05 15:34:00,
2013-03-05 10:39:00,31.8,21.3,29.99,ENE,68,3.8,8.0,65,0.00,,,0.00,WUHU216HW,2013-03-05 15:39:00,
2013-03-05 10:44:00,31.6,21.5,29.99,ESE,113,12.3,12.3,66,0.00,,,0.00,WUHU216HW,2013-03-05 15:44:00,
2013-03-05 10:49:00,31.2,21.5,29.99,SSE,158,7.1,12.3,67,0.00,,,0.00,WUHU216HW,2013-03-05 15:49:00,
2013-03-05 10:54:00,31.2,21.9,29.99,SE,135,4.4,12.3,68,0.00,,,0.00,WUHU216HW,2013-03-05 15:54:00,
2013-03-05 10:59:00,30.7,22.4,30.00,SSE,158,4.2,5.5,71,0.00,,,0.00,WUHU216HW,2013-03-05 15:59:00,
2013-03-05 11:04:00,30.5,22.2,30.00,SE,135,11.8,11.8,71,0.00,,,0.00,WUHU216HW,2013-03-05 16:04:00,
2013-03-05 11:09:00,30.2,22.5,30.00,SE,135,7.6,11.8,73,0.00,,,0.00,WUHU216HW,2013-03-05 16:09:00,
2013-03-05 11:14:00,30.0,22.6,30.00,ENE,68,2.9,7.6,74,0.00,,,0.00,WUHU216HW,2013-03-05 16:14:00,
2013-03-05 11:19:00,30.0,23.3,29.99,ESE,113,4.4,5.1,76,0.00,,,0.00,WUHU216HW,2013-03-05 16:19:00,
2013-03-05 11:24:00,29.8,23.1,29.99,ENE,68,6.7,6.7,76,0.00,,,0.00,WUHU216HW,2013-03-05 16:24:00,
2013-03-05 11:29:00,29.8,23.1,29.99,East,90,2.9,6.7,76,0.00,,,0.00,WUHU216HW,2013-03-05 16:29:00,
2013-03-05 11:34:00,30.0,23.3,29.99,East,90,6.7,6.7,76,0.00,,,0.00,WUHU216HW,2013-03-05 16:34:00,
2013-03-05 11:39:00,30.0,23.6,29.99,SE,135,3.5,6.7,77,0.00,,,0.00,WUHU216HW,2013-03-05 16:39:00,
2013-03-05 11:44:00,30.0,23.6,29.99,ENE,68,2.6,6.7,77,0.00,,,0.00,WUHU216HW,2013-03-05 16:44:00,
2013-03-05 11:49:00,30.0,23.6,29.99,NE,45,4.4,4.4,77,0.00,,,0.00,WUHU216HW,2013-03-05 16:49:00,
2013-03-05 11:54:00,30.0,23.9,29.98,ESE,113,0.0,7.6,78,0.00,,,0.00,WUHU216HW,2013-03-05 16:54:00,
2013-03-05 11:59:00,30.0,23.9,29.98,ENE,68,2.6,7.6,78,0.00,,,0.00,WUHU216HW,2013-03-05 16:59:00,
2013-03-05 12:04:00,30.0,23.9,29.98,ESE,113,4.4,5.8,78,0.00,,,0.00,WUHU216HW,2013-03-05 17:04:00,
2013-03-05 12:09:00,30.0,23.9,29.97,ESE,113,4.9,5.8,78,0.00,,,0.00,WUHU216HW,2013-03-05 17:09:00,
2013-03-05 12:14:00,30.0,24.2,29.97,NE,45,3.5,4.9,79,0.00,,,0.00,WUHU216HW,2013-03-05 17:14:00,
2013-03-05 12:19:00,30.3,24.6,29.97,NE,45,8.7,8.7,79,0.00,,,0.00,WUHU216HW,2013-03-05 17:19:00,
2013-03-05 12:24:00,30.2,24.4,29.97,East,90,4.6,8.7,79,0.00,,,0.00,WUHU216HW,2013-03-05 17:24:00,
2013-03-05 12:29:00,30.2,24.4,29.96,East,90,3.3,5.8,79,0.00,,,0.00,WUHU216HW,2013-03-05 17:29:00,
2013-03-05 12:34:00,30.3,24.6,29.96,NE,45,3.1,3.3,79,0.00,,,0.00,WUHU216HW,2013-03-05 17:34:00,
2013-03-05 12:39:00,30.3,24.6,29.96,ENE,68,2.9,3.3,80,0.00,,,0.00,WUHU216HW,2013-03-05 17:39:00,
2013-03-05 12:44:00,30.5,25.1,29.96,ENE,68,0.8,10.2,80,0.00,,,0.00,WUHU216HW,2013-03-05 17:44:00,
2013-03-05 12:49:00,30.3,24.9,29.96,ENE,68,4.2,10.2,80,0.00,,,0.00,WUHU216HW,2013-03-05 17:49:00,
2013-03-05 12:54:00,30.5,24.9,29.95,NE,45,4.4,4.4,80,0.00,,,0.00,WUHU216HW,2013-03-05 17:54:00,
2013-03-05 12:59:00,30.3,24.9,29.96,ESE,113,1.1,4.4,80,0.00,,,0.00,WUHU216HW,2013-03-05 17:59:00,
2013-03-05 13:04:00,30.3,24.9,29.95,ESE,113,3.1,4.9,80,0.00,,,0.00,WUHU216HW,2013-03-05 18:04:00,
2013-03-05 13:09:00,30.2,24.8,29.95,ENE,68,6.4,6.4,80,0.00,,,0.00,WUHU216HW,2013-03-05 18:09:00,
2013-03-05 13:14:00,30.0,24.6,29.95,ENE,68,6.0,6.4,80,0.00,,,0.00,WUHU216HW,2013-03-05 18:14:00,
2013-03-05 13:19:00,30.0,24.6,29.95,ESE,113,3.5,6.0,80,0.00,,,0.00,WUHU216HW,2013-03-05 18:19:00,
2013-03-05 13:24:00,30.0,24.9,29.94,ENE,68,1.5,6.0,81,0.00,,,0.00,WUHU216HW,2013-03-05 18:24:00,
2013-03-05 13:29:00,30.0,24.9,29.94,ENE,68,3.1,3.3,81,0.00,,,0.00,WUHU216HW,2013-03-05 18:29:00,
2013-03-05 13:34:00,29.8,24.4,29.94,NE,45,5.3,5.3,80,0.00,,,0.00,WUHU216HW,2013-03-05 18:34:00,
2013-03-05 13:39:00,29.8,24.4,29.94,East,90,4.4,5.3,80,0.00,,,0.00,WUHU216HW,2013-03-05 18:39:00,
2013-03-05 13:44:00,29.8,24.7,29.94,ENE,68,2.2,5.3,81,0.00,,,0.00,WUHU216HW,2013-03-05 18:44:00,
2013-03-05 13:49:00,29.6,24.5,29.93,WNW,293,1.7,3.3,81,0.00,,,0.00,WUHU216HW,2013-03-05 18:49:00,
2013-03-05 13:54:00,29.8,24.7,29.93,NE,45,1.5,3.3,81,0.00,,,0.00,WUHU216HW,2013-03-05 18:54:00,
2013-03-05 13:59:00,29.8,24.7,29.93,ENE,68,1.7,3.3,81,0.00,,,0.00,WUHU216HW,2013-03-05 18:59:00,
2013-03-05 14:04:00,30.0,24.9,29.92,NE,45,4.0,4.0,81,0.00,,,0.00,WUHU216HW,2013-03-05 19:04:00,
2013-03-05 14:09:00,30.3,25.0,29.92,NE,45,2.2,4.0,81,0.00,,,0.00,WUHU216HW,2013-03-05 19:09:00,
2013-03-05 14:14:00,30.3,25.2,29.92,ENE,68,3.5,3.5,81,0.00,,,0.00,WUHU216HW,2013-03-05 19:14:00,
2013-03-05 14:19:00,30.5,25.4,29.92,NE,45,1.5,3.5,81,0.00,,,0.00,WUHU216HW,2013-03-05 19:19:00,
2013-03-05 14:24:00,30.7,25.6,29.92,East,90,2.4,3.5,81,0.00,,,0.00,WUHU216HW,2013-03-05 19:24:00,
2013-03-05 14:29:00,30.7,25.6,29.92,ENE,68,0.8,3.5,81,0.00,,,0.00,WUHU216HW,2013-03-05 19:29:00,
2013-03-05 14:34:00,30.7,25.6,29.92,East,90,1.1,2.2,81,0.00,,,0.00,WUHU216HW,2013-03-05 19:34:00,
2013-03-05 14:39:00,30.7,25.6,29.92,ENE,68,1.1,2.2,81,0.00,,,0.00,WUHU216HW,2013-03-05 19:39:00,
2013-03-05 14:44:00,30.7,25.6,29.92,SE,135,0.0,3.3,81,0.00,,,0.00,WUHU216HW,2013-03-05 19:44:00,
2013-03-05 14:49:00,30.5,25.4,29.92,SE,135,2.0,3.3,81,0.00,,,0.00,WUHU216HW,2013-03-05 19:49:00,
2013-03-05 14:54:00,30.5,25.4,29.92,ENE,68,2.4,2.4,81,0.00,,,0.00,WUHU216HW,2013-03-05 19:54:00,
2013-03-05 14:59:00,30.5,25.4,29.92,NE,45,4.2,6.2,81,0.00,,,0.00,WUHU216HW,2013-03-05 19:59:00,
2013-03-05 15:04:00,30.3,25.2,29.91,NE,45,0.0,6.2,81,0.00,,,0.00,WUHU216HW,2013-03-05 20:04:00,
2013-03-05 15:09:00,30.3,25.2,29.91,ENE,68,1.3,4.2,81,0.00,,,0.00,WUHU216HW,2013-03-05 20:09:00,
2013-03-05 15:14:00,30.3,25.2,29.91,NE,45,2.4,3.8,81,0.00,,,0.00,WUHU216HW,2013-03-05 20:14:00,
2013-03-05 15:22:00,30.0,24.9,29.91,ENE,68,2.2,3.5,81,0.00,,,0.00,WUHU216HW,2013-03-05 20:22:00,
2013-03-05 15:27:00,30.0,24.9,29.91,ENE,68,2.9,3.1,81,0.00,,,0.00,WUHU216HW,2013-03-05 20:27:00,
2013-03-05 15:32:00,30.0,24.9,29.91,NE,45,5.3,5.3,81,0.00,,,0.00,WUHU216HW,2013-03-05 20:32:00,
2013-03-05 15:37:00,30.2,25.0,29.91,NE,45,4.0,5.3,81,0.00,,,0.00,WUHU216HW,2013-03-05 20:37:00,
2013-03-05 15:42:00,30.0,24.9,29.91,NE,45,2.4,4.0,81,0.00,,,0.00,WUHU216HW,2013-03-05 20:42:00,
2013-03-05 15:47:00,30.0,24.9,29.91,NE,45,2.9,4.2,81,0.00,,,0.00,WUHU216HW,2013-03-05 20:47:00,
2013-03-05 15:52:00,30.2,25.0,29.91,NE,45,1.3,5.1,81,0.00,,,0.00,WUHU216HW,2013-03-05 20:52:00,
2013-03-05 15:57:00,30.3,25.2,29.91,ENE,68,1.7,5.1,81,0.00,,,0.00,WUHU216HW,2013-03-05 20:57:00,
2013-03-05 16:02:00,30.5,25.4,29.91,ENE,68,1.1,2.0,81,0.00,,,0.00,WUHU216HW,2013-03-05 21:02:00,
2013-03-05 16:07:00,30.7,25.6,29.91,ENE,68,0.8,2.0,81,0.00,,,0.00,WUHU216HW,2013-03-05 21:07:00,
2013-03-05 16:12:00,30.9,25.8,29.92,NE,45,0.0,1.5,81,0.00,,,0.00,WUHU216HW,2013-03-05 21:12:00,
2013-03-05 16:17:00,30.7,25.6,29.91,NW,315,3.1,5.5,81,0.00,,,0.00,WUHU216HW,2013-03-05 21:17:00,
2013-03-05 16:22:00,30.7,25.6,29.91,NE,45,0.0,5.5,81,0.00,,,0.00,WUHU216HW,2013-03-05 21:22:00,
2013-03-05 16:27:00,30.5,25.6,29.91,NE,45,0.0,3.1,81,0.00,,,0.00,WUHU216HW,2013-03-05 21:27:00,
2013-03-05 16:32:00,30.3,25.2,29.91,NE,45,4.4,4.4,81,0.00,,,0.00,WUHU216HW,2013-03-05 21:32:00,
2013-03-05 16:37:00,30.2,25.0,29.91,NE,45,1.1,4.4,81,0.00,,,0.00,WUHU216HW,2013-03-05 21:37:00,
2013-03-05 16:42:00,30.0,24.9,29.91,ENE,68,5.1,5.1,81,0.00,,,0.00,WUHU216HW,2013-03-05 21:42:00,
2013-03-05 16:47:00,30.0,24.9,29.91,NE,45,0.0,5.1,81,0.00,,,0.00,WUHU216HW,2013-03-05 21:47:00,
2013-03-05 16:52:00,29.8,24.7,29.92,NE,45,1.5,5.1,81,0.00,,,0.00,WUHU216HW,2013-03-05 21:52:00,
2013-03-05 16:57:00,29.8,24.7,29.92,NE,45,3.1,4.4,81,0.00,,,0.00,WUHU216HW,2013-03-05 21:57:00,
2013-03-05 17:02:00,29.8,24.7,29.92,NE,45,0.0,4.6,81,0.00,,,0.00,WUHU216HW,2013-03-05 22:02:00,
2013-03-05 17:07:00,29.6,24.8,29.92,ENE,68,2.2,4.6,82,0.00,,,0.00,WUHU216HW,2013-03-05 22:07:00,
2013-03-05 17:12:00,29.4,24.6,29.92,NNE,23,1.7,6.0,82,0.00,,,0.00,WUHU216HW,2013-03-05 22:12:00,
2013-03-05 17:17:00,29.4,24.6,29.92,NE,45,3.8,6.0,82,0.00,,,0.00,WUHU216HW,2013-03-05 22:17:00,
2013-03-05 17:22:00,29.3,24.4,29.92,NE,45,0.0,4.6,82,0.00,,,0.00,WUHU216HW,2013-03-05 22:22:00,
2013-03-05 17:27:00,29.3,24.4,29.92,NE,45,0.0,4.9,82,0.00,,,0.00,WUHU216HW,2013-03-05 22:27:00,
2013-03-05 17:32:00,29.3,24.4,29.92,NE,45,1.1,4.9,82,0.00,,,0.00,WUHU216HW,2013-03-05 22:32:00,
2013-03-05 17:37:00,29.1,24.2,29.92,NE,45,2.6,3.1,82,0.00,,,0.00,WUHU216HW,2013-03-05 22:37:00,
2013-03-05 17:42:00,29.1,24.2,29.92,NE,45,1.5,2.6,82,0.00,,,0.00,WUHU216HW,2013-03-05 22:42:00,
2013-03-05 17:47:00,29.1,24.2,29.92,NE,45,2.9,2.9,82,0.00,,,0.00,WUHU216HW,2013-03-05 22:47:00,
2013-03-05 17:52:00,29.1,24.2,29.92,ENE,68,1.3,2.9,82,0.00,,,0.00,WUHU216HW,2013-03-05 22:52:00,
2013-03-05 17:57:00,29.3,24.7,29.92,NE,45,0.0,2.4,83,0.00,,,0.00,WUHU216HW,2013-03-05 22:57:00,
2013-03-05 18:02:00,29.3,24.7,29.92,NE,45,1.1,2.4,83,0.00,,,0.00,WUHU216HW,2013-03-05 23:02:00,
2013-03-05 18:07:00,29.3,24.7,29.92,ENE,68,2.0,4.9,83,0.00,,,0.00,WUHU216HW,2013-03-05 23:07:00,
2013-03-05 18:12:00,29.3,24.7,29.92,North,0,0.0,4.9,83,0.00,,,0.00,WUHU216HW,2013-03-05 23:12:00,
2013-03-05 18:17:00,29.3,24.7,29.92,NE,45,2.0,2.6,83,0.00,,,0.00,WUHU216HW,2013-03-05 23:17:00,
2013-03-05 18:22:00,29.1,24.5,29.92,NE,45,2.0,2.0,83,0.00,,,0.00,WUHU216HW,2013-03-05 23:22:00,
2013-03-05 18:27:00,29.3,24.7,29.92,ENE,68,2.4,2.4,83,0.00,,,0.00,WUHU216HW,2013-03-05 23:27:00,
2013-03-05 18:32:00,29.1,24.5,29.92,NE,45,0.0,2.4,83,0.00,,,0.00,WUHU216HW,2013-03-05 23:32:00,
2013-03-05 18:37:00,29.3,24.7,29.92,NE,45,1.5,2.4,83,0.00,,,0.00,WUHU216HW,2013-03-05 23:37:00,
2013-03-05 18:42:00,29.3,24.7,29.92,ENE,68,0.0,2.0,83,0.00,,,0.00,WUHU216HW,2013-03-05 23:42:00,
2013-03-05 18:47:00,29.3,24.7,29.92,NE,45,2.0,2.0,83,0.00,,,0.00,WUHU216HW,2013-03-05 23:47:00,
2013-03-05 18:52:00,29.3,25.0,29.92,North,0,0.0,2.0,84,0.00,,,0.00,WUHU216HW,2013-03-05 23:52:00,
2013-03-05 18:57:00,29.3,25.0,29.92,North,0,0.0,2.0,84,0.00,,,0.00,WUHU216HW,2013-03-05 23:57:00,
2013-03-05 19:02:00,29.3,25.0,29.92,North,0,0.0,0.0,84,0.00,,,0.00,WUHU216HW,2013-03-06 00:02:00,
2013-03-05 19:14:00,29.3,25.0,29.93,NE,45,3.8,3.8,84,0.00,,,0.00,WUHU216HW,2013-03-06 00:14:00,
2013-03-05 19:19:00,29.1,24.8,29.92,NE,45,2.6,3.8,84,0.00,,,0.00,WUHU216HW,2013-03-06 00:19:00,
2013-03-05 19:24:00,29.1,24.8,29.93,NE,45,2.6,3.8,84,0.00,,,0.00,WUHU216HW,2013-03-06 00:24:00,
2013-03-05 19:29:00,29.1,24.8,29.92,NE,45,2.6,2.6,84,0.00,,,0.00,WUHU216HW,2013-03-06 00:29:00,
2013-03-05 19:34:00,29.1,24.8,29.92,NE,45,2.6,2.6,84,0.00,,,0.00,WUHU216HW,2013-03-06 00:34:00,
2013-03-05 19:39:00,29.1,24.8,29.93,NE,45,2.6,2.6,84,0.00,,,0.00,WUHU216HW,2013-03-06 00:39:00,
2013-03-05 19:51:00,29.1,25.1,29.93,NNE,23,2.2,2.2,85,0.00,,,0.00,WUHU216HW,2013-03-06 00:51:00,
2013-03-05 19:56:00,29.1,25.1,29.93,NE,45,2.4,2.4,85,0.00,,,0.00,WUHU216HW,2013-03-06 00:56:00,
2013-03-05 20:01:00,29.1,25.1,29.93,NE,45,1.1,2.9,85,0.00,,,0.00,WUHU216HW,2013-03-06 01:01:00,
2013-03-05 20:06:00,29.1,25.1,29.93,NE,45,5.1,5.1,85,0.00,,,0.00,WUHU216HW,2013-03-06 01:06:00,
2013-03-05 20:11:00,29.1,25.1,29.93,NE,45,0.8,5.5,85,0.00,,,0.00,WUHU216HW,2013-03-06 01:11:00,
2013-03-05 20:16:00,29.1,25.1,29.92,NW,315,2.4,5.5,85,0.00,,,0.00,WUHU216HW,2013-03-06 01:16:00,
2013-03-05 20:21:00,29.1,25.1,29.93,NE,45,0.0,3.5,85,0.00,,,0.00,WUHU216HW,2013-03-06 01:21:00,
2013-03-05 20:26:00,29.1,25.1,29.92,NNW,338,6.4,6.4,85,0.00,,,0.00,WUHU216HW,2013-03-06 01:26:00,
2013-03-05 20:31:00,29.1,25.1,29.92,NNW,338,7.1,7.1,85,0.00,,,0.00,WUHU216HW,2013-03-06 01:31:00,
2013-03-05 20:36:00,29.1,25.1,29.92,NNE,23,0.6,7.1,85,0.00,,,0.00,WUHU216HW,2013-03-06 01:36:00,
2013-03-05 20:41:00,29.1,25.1,29.92,ENE,68,3.5,7.1,85,0.00,,,0.00,WUHU216HW,2013-03-06 01:41:00,
2013-03-05 20:46:00,29.1,25.1,29.92,ESE,113,1.7,3.5,85,0.00,,,0.00,WUHU216HW,2013-03-06 01:46:00,
2013-03-05 20:51:00,29.1,25.1,29.92,NNW,338,3.1,3.5,85,0.00,,,0.00,WUHU216HW,2013-03-06 01:51:00,
2013-03-05 20:56:00,29.1,25.1,29.92,NE,45,2.4,3.1,85,0.00,,,0.00,WUHU216HW,2013-03-06 01:56:00,
2013-03-05 21:01:00,29.1,25.1,29.93,NNE,23,0.0,3.1,85,0.00,,,0.00,WUHU216HW,2013-03-06 02:01:00,
2013-03-05 21:06:00,29.1,25.4,29.92,North,0,2.0,6.9,85,0.00,,,0.00,WUHU216HW,2013-03-06 02:06:00,
2013-03-05 21:11:00,29.1,25.4,29.93,NNW,338,1.7,6.9,86,0.00,,,0.00,WUHU216HW,2013-03-06 02:11:00,
2013-03-05 21:16:00,29.1,25.4,29.93,ENE,68,0.8,2.4,86,0.00,,,0.00,WUHU216HW,2013-03-06 02:16:00,
2013-03-05 21:21:00,29.1,25.4,29.94,NE,45,0.0,5.3,86,0.00,,,0.00,WUHU216HW,2013-03-06 02:21:00,
2013-03-05 21:26:00,29.1,25.4,29.93,North,0,0.8,5.3,86,0.00,,,0.00,WUHU216HW,2013-03-06 02:26:00,
2013-03-05 21:31:00,29.1,25.4,29.94,NE,45,2.6,4.6,86,0.00,,,0.00,WUHU216HW,2013-03-06 02:31:00,
2013-03-05 21:36:00,28.9,25.2,29.94,North,0,0.6,3.8,86,0.00,,,0.00,WUHU216HW,2013-03-06 02:36:00,
2013-03-05 21:41:00,28.9,25.2,29.94,North,0,2.4,3.8,86,0.00,,,0.00,WUHU216HW,2013-03-06 02:41:00,
2013-03-05 21:46:00,28.9,25.2,29.94,North,0,2.2,2.4,86,0.00,,,0.00,WUHU216HW,2013-03-06 02:46:00,
2013-03-05 21:51:00,28.9,25.2,29.94,North,0,2.2,2.4,86,0.00,,,0.00,WUHU216HW,2013-03-06 02:51:00,
2013-03-05 21:56:00,28.9,25.2,29.94,NE,45,4.2,4.2,86,0.00,,,0.00,WUHU216HW,2013-03-06 02:56:00,
2013-03-05 22:01:00,28.7,25.0,29.94,NNE,23,1.7,6.0,86,0.00,,,0.00,WUHU216HW,2013-03-06 03:01:00,
2013-03-05 22:06:00,28.7,25.0,29.94,North,0,5.8,8.9,86,0.00,,,0.00,WUHU216HW,2013-03-06 03:06:00,
2013-03-05 22:10:00,28.7,25.0,29.95,NNE,23,2.0,8.9,86,0.00,,,0.00,WUHU216HW,2013-03-06 03:10:00,
2013-03-05 22:15:00,28.7,25.0,29.95,NNW,338,4.2,5.8,86,0.00,,,0.00,WUHU216HW,2013-03-06 03:15:00,
2013-03-05 22:20:00,28.7,25.0,29.95,NNE,23,2.9,4.2,86,0.00,,,0.00,WUHU216HW,2013-03-06 03:20:00,
2013-03-05 22:25:00,28.7,25.0,29.95,NNE,23,2.9,2.9,86,0.00,,,0.00,WUHU216HW,2013-03-06 03:25:00,
2013-03-05 22:30:00,28.5,24.9,29.95,NNE,23,2.9,2.9,86,0.00,,,0.00,WUHU216HW,2013-03-06 03:30:00,
2013-03-05 22:35:00,28.5,24.9,29.96,NNE,23,0.0,2.9,86,0.00,,,0.00,WUHU216HW,2013-03-06 03:35:00,
2013-03-05 22:40:00,28.5,24.9,29.96,NNE,23,0.0,2.9,86,0.00,,,0.00,WUHU216HW,2013-03-06 03:40:00,
2013-03-05 22:45:00,28.5,24.9,29.96,North,0,3.3,3.3,86,0.00,,,0.00,WUHU216HW,2013-03-06 03:45:00,
2013-03-05 22:50:00,28.5,24.8,29.96,NNE,23,1.3,3.3,86,0.00,,,0.00,WUHU216HW,2013-03-06 03:50:00,
2013-03-05 22:55:00,28.5,24.8,29.96,NNE,23,1.3,2.9,86,0.00,,,0.00,WUHU216HW,2013-03-06 03:55:00,
2013-03-05 23:00:00,3.2,-0.1,29.97,NNE,23,4.4,4.4,86,0.00,,,0.00,WUHU216HW,2013-03-06 04:00:00,
2013-03-05 23:06:00,3.2,-0.1,29.96,NNE,23,4.4,4.4,86,0.00,,,0.00,WUHU216HW,2013-03-06 04:06:00,
2013-03-05 23:10:00,5.5,2.2,29.96,NNE,23,2.0,4.4,86,0.00,,,0.00,WUHU216HW,2013-03-06 04:10:00,
2013-03-05 23:15:00,3.5,0.2,29.97,NNE,23,2.0,4.4,86,0.00,,,0.00,WUHU216HW,2013-03-06 04:15:00,
2013-03-05 23:20:00,28.2,24.5,29.97,NNE,23,2.0,2.0,86,0.00,,,0.00,WUHU216HW,2013-03-06 04:20:00,
2013-03-05 23:25:00,28.2,24.5,29.97,NNE,23,2.0,2.0,86,0.00,,,0.00,WUHU216HW,2013-03-06 04:25:00,
2013-03-05 23:30:00,28.2,24.5,29.97,NNE,23,2.0,2.0,86,0.00,,,0.00,WUHU216HW,2013-03-06 04:30:00,
2013-03-05 23:46:00,27.8,23.9,29.97,North,0,2.6,2.6,85,0.00,,,0.00,WUHU216HW,2013-03-06 04:46:00,
2013-03-05 23:51:00,27.6,23.7,29.97,NNE,23,0.8,2.6,85,0.00,,,0.00,WUHU216HW,2013-03-06 04:51:00,
2013-03-05 23:56:00,27.8,23.9,29.97,North,0,2.4,2.6,85,0.00,,,0.00,WUHU216HW,2013-03-06 04:56:00,